Time;durP1;ratioP1;P1;durP2;ratioP2;P2;SDS_P1;SDS_P2;PMS_P1;PMS_P2;Temp;Humidity;BMP_temperature;BMP_pressure;BME280_temperature;BME280_humidity;BME280_pressure;Samples;Min_cycle;Max_cycle;Signal;HPM_P1;HPM_P2
2022/01/22 00:01:04;;;;;;;11.13;2.90;;;;;;;-1.24;83.33;96925.03;4992135;28;20068;-44
2022/01/22 00:03:32;;;;;;;4.32;1.92;;;;;;;-1.23;83.08;96931.97;5007772;28;20109;-48
2022/01/22 00:05:59;;;;;;;8.20;2.72;;;;;;;-1.25;83.14;96925.28;4993066;28;20050;-50
2022/01/22 00:08:26;;;;;;;5.22;2.58;;;;;;;-1.31;83.47;96921.69;4992256;28;20039;-49
2022/01/22 00:10:53;;;;;;;7.28;2.30;;;;;;;-1.16;83.12;96933.72;5002557;28;20042;-48
2022/01/22 00:15:51;;;;;;;9.50;2.92;;;;;;;-1.19;82.51;96921.69;5010326;28;20049;-47
2022/01/22 00:18:18;;;;;;;4.95;2.05;;;;;;;-1.19;82.59;96927.00;5000466;28;20129;-46
2022/01/22 00:20:46;;;;;;;6.40;2.28;;;;;;;-1.14;82.19;96939.56;4992046;28;20088;-48
2022/01/22 00:23:16;;;;;;;4.03;2.05;;;;;;;-1.28;81.56;96918.56;4996073;28;20054;-51
2022/01/22 00:25:43;;;;;;;5.93;2.15;;;;;;;-1.23;82.69;96928.53;4982908;28;20547;-47
2022/01/22 00:28:10;;;;;;;5.57;2.30;;;;;;;-1.15;82.28;96928.16;4992355;28;20060;-52
2022/01/22 00:30:37;;;;;;;6.15;2.28;;;;;;;-1.00;81.65;96925.03;4991600;28;20097;-49
2022/01/22 00:33:04;;;;;;;4.32;2.10;;;;;;;-0.99;81.25;96921.31;4992358;28;20050;-46
2022/01/22 00:35:31;;;;;;;4.80;1.85;;;;;;;-1.29;81.47;96914.31;4992215;28;20066;-49
2022/01/22 00:37:59;;;;;;;6.50;2.20;;;;;;;-1.20;80.29;96925.41;4992369;28;20038;-47
2022/01/22 00:40:32;;;;;;;5.20;2.20;;;;;;;-1.00;80.79;96920.50;4987365;28;20043;-48
2022/01/22 00:43:01;;;;;;;5.75;1.88;;;;;;;-0.98;80.61;96923.72;5003196;28;20054;-46
2022/01/22 00:45:28;;;;;;;3.03;1.65;;;;;;;-0.98;79.88;96914.94;4992687;28;20057;-47
2022/01/22 00:47:55;;;;;;;5.18;1.60;;;;;;;-0.98;78.97;96913.09;4989003;28;20043;-47
2022/01/22 00:50:23;;;;;;;5.38;1.75;;;;;;;-1.05;78.69;96920.38;4991921;28;20129;-47
2022/01/22 00:52:51;;;;;;;3.05;1.70;;;;;;;-1.06;79.18;96905.50;4991842;28;20085;-48
2022/01/22 00:55:19;;;;;;;6.40;2.00;;;;;;;-0.96;79.55;96896.94;5000563;28;20519;-46
2022/01/22 00:57:46;;;;;;;6.93;1.98;;;;;;;-1.19;80.07;96889.84;4991086;28;20400;-49
2022/01/22 01:00:15;;;;;;;7.13;1.80;;;;;;;-1.12;80.45;96887.84;5000399;28;20047;-49
2022/01/22 01:02:43;;;;;;;7.68;2.45;;;;;;;-0.88;79.27;96887.78;4992467;28;20042;-51
2022/01/22 01:05:12;;;;;;;5.75;1.83;;;;;;;-0.95;79.50;96891.38;4992119;28;20046;-49
2022/01/22 01:07:39;;;;;;;8.63;2.17;;;;;;;-1.00;78.74;96887.84;4991786;28;20137;-49
2022/01/22 01:10:10;;;;;;;4.55;2.10;;;;;;;-1.06;79.18;96894.09;4993363;28;20535;-48
2022/01/22 01:12:39;;;;;;;4.72;1.95;;;;;;;-0.94;78.87;96892.22;4993241;28;20045;-48
2022/01/22 01:32:10;;;;;;;9.93;2.85;;;;;;;-0.90;78.02;96874.75;4991504;28;20137;-51
2022/01/22 01:36:37;;;;;;;6.47;2.15;;;;;;;-0.84;77.02;96880.97;5006533;28;20129;-49
2022/01/22 01:39:11;;;;;;;4.47;1.77;;;;;;;-0.90;76.00;96877.41;4989865;28;20069;-48
2022/01/22 01:44:06;;;;;;;6.38;1.60;;;;;;;-0.83;76.31;96891.34;5006957;28;20054;-49
2022/01/22 01:47:06;;;;;;;7.38;1.67;;;;;;;-0.88;76.62;96874.50;4971597;28;20063;-50
2022/01/22 01:49:34;;;;;;;3.50;1.45;;;;;;;-0.79;76.49;96894.34;5005763;28;20451;-49
2022/01/22 01:52:06;;;;;;;5.05;1.95;;;;;;;-0.82;76.36;96871.72;5004505;28;20130;-47
2022/01/22 01:54:47;;;;;;;3.60;1.67;;;;;;;-0.78;76.36;96878.19;4999027;28;20053;-48
2022/01/22 01:57:31;;;;;;;4.63;1.65;;;;;;;-0.91;76.78;96874.97;4994673;28;20073;-48
2022/01/22 01:59:59;;;;;;;;;;;;;;;-0.80;76.31;96874.94;4997861;28;20409;-47
2022/01/22 02:02:42;;;;;;;3.67;1.40;;;;;;;-0.79;76.10;96873.88;4993472;28;19922;-48
2022/01/22 02:05:12;;;;;;;4.38;1.60;;;;;;;-0.86;76.46;96873.22;5010292;28;20547;-49
2022/01/22 02:07:42;;;;;;;6.60;1.70;;;;;;;-0.97;77.25;96858.94;4994565;28;20068;-48
2022/01/22 02:10:16;;;;;;;7.03;1.63;;;;;;;-0.82;76.46;96847.00;4998797;28;20041;-47
2022/01/22 02:24:01;;;;;;;3.40;1.30;;;;;;;-0.88;78.33;96813.41;5011149;28;20054;-48
2022/01/22 02:26:31;;;;;;;2.78;1.40;;;;;;;-0.69;78.81;96819.31;5027356;28;20050;-46
2022/01/22 02:28:58;;;;;;;5.15;1.30;;;;;;;-0.77;79.63;96816.00;4991514;28;20126;-50
2022/01/22 02:32:13;;;;;;;2.05;1.30;;;;;;;-0.65;78.88;96841.72;5001948;28;20045;-49
2022/01/22 02:34:43;;;;;;;3.20;1.40;;;;;;;-0.69;79.15;96829.97;5003574;28;20133;-45
2022/01/22 02:37:15;;;;;;;1.80;1.10;;;;;;;-0.65;78.92;96818.63;5009484;28;20113;-48
2022/01/22 02:39:57;;;;;;;3.53;1.20;;;;;;;-0.79;79.70;96822.59;5006481;28;20038;-46
2022/01/22 02:42:28;;;;;;;3.55;1.50;;;;;;;-0.61;78.53;96837.56;5005076;28;20049;-49
2022/01/22 02:44:55;;;;;;;3.33;1.38;;;;;;;-0.69;79.08;96843.25;4993391;28;20046;-49
2022/01/22 02:47:23;;;;;;;3.08;1.50;;;;;;;-0.64;78.97;96833.53;4995848;28;20093;-52
2022/01/22 02:49:51;;;;;;;5.32;1.20;;;;;;;-0.84;80.48;96828.66;5003256;28;20043;-51
2022/01/22 02:52:19;;;;;;;3.95;1.55;;;;;;;-0.62;79.22;96827.94;4991438;28;20415;-50
2022/01/22 02:54:48;;;;;;;2.08;1.10;;;;;;;-0.58;79.15;96839.75;4995066;28;20042;-46
2022/01/22 02:57:16;;;;;;;3.42;1.35;;;;;;;-0.58;79.42;96831.78;5009432;28;20117;-48
2022/01/22 02:59:49;;;;;;;5.28;1.77;;;;;;;-0.54;79.11;96833.69;5005827;28;20045;-50
2022/01/22 03:02:16;;;;;;;5.20;1.75;;;;;;;-0.47;78.89;96841.53;4997950;28;20050;-49
2022/01/22 03:04:45;;;;;;;5.32;2.05;;;;;;;-0.48;79.15;96831.94;5009126;28;20399;-50
2022/01/22 03:07:12;;;;;;;5.07;2.20;;;;;;;-0.54;79.50;96830.25;5009353;28;20053;-47
2022/01/22 03:09:42;;;;;;;3.20;1.98;;;;;;;-0.63;80.06;96835.13;4982042;28;20057;-50
2022/01/22 03:20:38;;;;;;;6.05;2.00;;;;;;;-0.44;80.02;96838.38;5005749;28;20078;-46
2022/01/22 03:27:20;;;;;;;4.28;1.95;;;;;;;-0.46;80.11;96829.84;4997604;28;20046;-46
2022/01/22 03:31:23;;;;;;;2.85;1.30;;;;;;;-0.51;81.10;96827.09;4993796;28;20115;-48
2022/01/22 03:33:50;;;;;;;5.03;1.85;;;;;;;-0.45;81.21;96831.47;5003211;28;20039;-46
2022/01/22 03:36:19;;;;;;;3.65;1.90;;;;;;;-0.55;82.28;96841.94;4994178;28;20089;-46
2022/01/22 03:38:47;;;;;;;3.40;1.48;;;;;;;-0.50;82.91;96834.81;4988566;28;20487;-45
2022/01/22 03:41:14;;;;;;;3.97;1.60;;;;;;;-0.63;83.44;96823.69;4995594;28;20574;-46
2022/01/22 03:43:48;;;;;;;4.50;1.70;;;;;;;-0.49;82.85;96828.47;4992369;28;20042;-49
2022/01/22 03:46:15;;;;;;;4.18;2.00;;;;;;;-0.57;83.66;96828.84;4994627;28;20574;-49
2022/01/22 03:48:42;;;;;;;7.03;2.10;;;;;;;-0.51;83.65;96833.22;4995378;28;20125;-47
2022/01/22 03:51:09;;;;;;;3.60;2.00;;;;;;;-0.54;83.80;96832.91;5007385;28;20057;-48
2022/01/22 03:53:36;;;;;;;2.85;1.70;;;;;;;-0.51;83.78;96822.59;4991692;28;20511;-50
2022/01/22 03:56:05;;;;;;;6.90;2.20;;;;;;;-0.56;84.77;96840.28;4999993;28;20472;-47
2022/01/22 03:59:07;;;;;;;3.55;2.20;;;;;;;-0.76;86.57;96830.09;4983203;28;20038;-46
2022/01/22 04:04:53;;;;;;;6.78;2.30;;;;;;;-0.89;89.94;96823.22;4937722;28;20407;-50
2022/01/22 04:09:59;;;;;;;5.22;2.67;;;;;;;-1.21;93.24;96842.25;4993058;28;20046;-47
2022/01/22 04:12:47;;;;;;;6.55;3.03;;;;;;;-0.93;91.59;96835.38;4992387;28;20051;-49
2022/01/22 04:15:17;;;;;;;6.82;3.40;;;;;;;-0.88;91.41;96830.13;5003026;28;20074;-48
2022/01/22 04:25:48;;;;;;;7.80;3.30;;;;;;;-1.04;93.62;96817.63;4992537;28;20433;-48
2022/01/22 04:28:15;;;;;;;;;;;;;;;-1.02;92.85;96820.84;4993001;28;20464;-50
2022/01/22 04:30:42;;;;;;;8.63;3.15;;;;;;;-1.04;93.09;96822.91;5007652;28;19969;-46
2022/01/22 04:33:10;;;;;;;7.20;3.47;;;;;;;-1.11;93.94;96830.22;4987671;28;20046;-48
2022/01/22 04:35:37;;;;;;;8.55;3.20;;;;;;;-1.04;93.20;96841.50;4973249;28;20086;-47
2022/01/22 04:38:04;;;;;;;6.93;3.08;;;;;;;-1.09;93.82;96836.13;4992064;28;20046;-48
2022/01/22 04:40:31;;;;;;;6.15;3.42;;;;;;;-1.01;93.71;96835.72;4992143;28;20043;-48
2022/01/22 04:43:00;;;;;;;7.13;3.33;;;;;;;-0.90;93.10;96834.09;4992577;28;20070;-47
2022/01/22 04:48:27;;;;;;;5.88;3.42;;;;;;;-0.97;93.08;96831.59;5006903;28;20515;-47
2022/01/22 04:56:32;;;;;;;6.38;4.07;;;;;;;-1.00;93.00;96840.03;5007438;28;20516;-46
2022/01/22 04:59:01;;;;;;;4.72;2.67;;;;;;;-1.05;92.89;96827.44;5024134;23;20689;-44
2022/01/22 05:01:28;;;;;;;7.38;3.60;;;;;;;-1.03;93.01;96833.31;5010344;28;20052;-45
2022/01/22 05:04:01;;;;;;;7.80;3.25;;;;;;;-0.89;92.42;96831.19;5010005;28;20506;-43
2022/01/22 05:06:40;;;;;;;10.55;4.53;;;;;;;-0.96;92.43;96827.88;5030046;28;20045;-45
2022/01/22 05:09:33;;;;;;;8.05;4.03;;;;;;;-0.87;92.40;96821.16;5022854;28;20475;-45
2022/01/22 05:12:00;;;;;;;9.40;4.05;;;;;;;-0.80;92.02;96826.31;5009783;28;20046;-47
2022/01/22 05:14:28;;;;;;;9.80;4.28;;;;;;;-1.07;93.21;96813.59;4958990;28;20048;-43
2022/01/22 05:16:58;;;;;;;7.65;3.97;;;;;;;-0.97;92.81;96819.09;5005757;28;20128;-47
2022/01/22 05:22:38;;;;;;;7.63;4.97;;;;;;;-0.87;93.23;96813.19;5019008;28;20499;-44
2022/01/22 05:25:10;;;;;;;7.75;3.70;;;;;;;-0.71;92.69;96800.97;5007966;28;20580;-47
2022/01/22 05:39:10;;;;;;;14.65;4.88;;;;;;;-1.08;95.50;96813.81;5028075;28;20510;-43
2022/01/22 05:41:39;;;;;;;9.90;5.25;;;;;;;-1.04;96.48;96807.81;5030292;28;20042;-45
2022/01/22 05:44:07;;;;;;;11.60;5.55;;;;;;;-0.87;95.88;96810.53;5009340;28;20050;-44
2022/01/22 05:46:34;;;;;;;8.30;4.32;;;;;;;-1.13;96.81;96817.19;5010130;28;20042;-46
2022/01/22 05:49:03;;;;;;;9.68;5.05;;;;;;;-1.08;97.54;96827.09;5005816;28;20042;-47
2022/01/22 05:51:31;;;;;;;15.40;6.03;;;;;;;-1.15;97.94;96826.44;5019119;28;20435;-44
2022/01/22 05:55:07;;;;;;;11.88;6.32;;;;;;;-1.24;98.38;96797.59;5012663;28;20120;-44
2022/01/22 05:59:37;;;;;;;15.30;6.10;;;;;;;-1.27;100.00;96829.94;5017340;28;20542;-45
2022/01/22 06:02:12;;;;;;;11.43;5.47;;;;;;;-1.30;100.00;96819.78;5010722;28;20396;-44
2022/01/22 06:04:41;;;;;;;11.55;6.75;;;;;;;-1.16;100.00;96825.63;5023846;28;20049;-44
2022/01/22 06:07:11;;;;;;;13.55;7.05;;;;;;;-1.21;100.00;96828.97;5014681;28;20049;-45
2022/01/22 06:09:51;;;;;;;14.50;7.07;;;;;;;-1.13;100.00;96827.03;5015245;28;20104;-46
2022/01/22 06:12:33;;;;;;;13.82;7.88;;;;;;;-1.10;100.00;96839.81;5003221;28;20046;-46
2022/01/22 06:15:00;;;;;;;16.10;6.55;;;;;;;-1.25;100.00;96827.84;5000715;28;20242;-45
2022/01/22 06:17:29;;;;;;;18.13;7.13;;;;;;;-1.05;100.00;96837.25;5013891;28;20450;-45
2022/01/22 06:19:58;;;;;;;18.27;8.32;;;;;;;-1.10;100.00;96839.81;5013528;28;20049;-45
2022/01/22 06:22:25;;;;;;;15.20;8.18;;;;;;;-1.12;100.00;96832.09;5004000;28;20121;-47
2022/01/22 06:24:52;;;;;;;13.10;6.68;;;;;;;-1.13;100.00;96845.59;5021422;28;20048;-45
2022/01/22 06:27:19;;;;;;;15.63;7.80;;;;;;;-1.04;100.00;96833.53;5013636;28;20042;-43
2022/01/22 06:29:48;;;;;;;14.70;7.32;;;;;;;-1.04;100.00;96839.69;5024415;28;20040;-45
2022/01/22 06:32:15;;;;;;;12.93;7.68;;;;;;;-1.08;100.00;96824.44;5014055;28;20046;-45
2022/01/22 06:34:43;;;;;;;14.77;8.77;;;;;;;-0.90;100.00;96842.88;5012965;28;20042;-44
2022/01/22 06:37:11;;;;;;;11.23;6.53;;;;;;;-1.12;100.00;96857.84;4997339;28;20061;-48
2022/01/22 06:42:51;;;;;;;10.85;7.55;;;;;;;-0.88;99.52;96875.31;5014669;28;20407;-45
2022/01/22 06:45:27;;;;;;;17.38;8.02;;;;;;;-0.89;98.78;96871.03;5012564;28;20042;-44
2022/01/22 06:48:00;;;;;;;14.90;7.45;;;;;;;-0.86;98.63;96867.13;5009990;28;20045;-44
2022/01/22 06:50:30;;;;;;;13.15;7.95;;;;;;;-0.86;98.56;96864.47;4995460;28;20117;-44
2022/01/22 06:53:04;;;;;;;14.48;7.65;;;;;;;-0.87;98.58;96868.97;5010154;28;20442;-47
2022/01/22 06:55:54;;;;;;;12.85;7.55;;;;;;;-0.69;98.00;96872.47;5013230;28;20042;-46
2022/01/22 06:58:22;;;;;;;12.90;7.40;;;;;;;-0.81;98.21;96873.34;5021061;28;20502;-54
2022/01/22 07:00:56;;;;;;;13.57;7.20;;;;;;;-0.64;97.34;96868.06;4998102;28;20044;-46
2022/01/22 07:03:26;;;;;;;12.57;7.85;;;;;;;-0.64;97.28;96862.75;5013262;28;20049;-45
2022/01/22 07:06:14;;;;;;;13.20;7.53;;;;;;;-0.73;98.26;96867.63;5003403;28;20053;-46
2022/01/22 07:08:41;;;;;;;14.82;7.68;;;;;;;-0.66;97.54;96867.50;5013762;28;20034;-46
2022/01/22 07:11:09;;;;;;;12.30;8.18;;;;;;;-0.69;98.24;96873.28;4996218;28;20069;-47
2022/01/22 07:13:41;;;;;;;13.02;7.55;;;;;;;-0.84;98.32;96884.44;5012797;28;20045;-45
2022/01/22 07:16:08;;;;;;;15.57;7.68;;;;;;;-0.86;98.76;96904.31;5014552;28;20399;-46
2022/01/22 07:18:37;;;;;;;16.38;8.30;;;;;;;-0.72;98.58;96892.34;5005681;28;20041;-47
2022/01/22 07:21:23;;;;;;;13.80;8.88;;;;;;;-0.64;98.77;96899.16;5025546;28;20050;-46
2022/01/22 07:26:28;;;;;;;13.93;9.30;;;;;;;-0.62;98.86;96897.06;5011862;28;20052;-45
2022/01/22 07:28:59;;;;;;;13.27;7.43;;;;;;;-0.80;99.69;96898.84;4985923;28;20053;-49
2022/01/22 07:31:28;;;;;;;17.52;9.52;;;;;;;-0.71;100.00;96900.09;4993908;28;20434;-48
2022/01/22 07:34:00;;;;;;;16.20;8.80;;;;;;;-0.80;100.00;96901.50;4991405;28;20599;-45
2022/01/22 07:36:28;;;;;;;22.13;10.65;;;;;;;-0.78;100.00;96899.44;5005136;28;20096;-47
2022/01/22 07:38:56;;;;;;;17.20;10.32;;;;;;;-0.77;100.00;96906.38;5010470;28;20117;-46
2022/01/22 07:41:23;;;;;;;17.20;9.77;;;;;;;-0.99;100.00;96913.34;5010321;28;20065;-46
2022/01/22 07:44:19;;;;;;;18.33;10.98;;;;;;;-0.92;100.00;96918.53;4997182;28;20073;-50
2022/01/22 07:46:48;;;;;;;19.00;10.85;;;;;;;-0.95;100.00;96925.09;5011438;28;20069;-48
2022/01/22 07:49:25;;;;;;;19.77;10.75;;;;;;;-0.92;100.00;96926.50;4997892;28;20122;-47
2022/01/22 07:51:56;;;;;;;25.40;12.15;;;;;;;-0.86;100.00;96923.72;4980765;28;20050;-47
2022/01/22 07:54:24;;;;;;;19.67;9.55;;;;;;;-1.14;100.00;96936.91;5008595;28;20046;-49
2022/01/22 07:56:58;;;;;;;19.95;11.55;;;;;;;-0.83;100.00;96936.53;5004856;28;20042;-45
2022/01/22 07:59:25;;;;;;;22.40;11.68;;;;;;;-0.82;100.00;96937.31;4985355;28;20061;-49
2022/01/22 08:01:56;;;;;;;21.50;12.02;;;;;;;-0.94;100.00;96940.03;5005801;28;20046;-45
2022/01/22 08:04:24;;;;;;;24.27;11.55;;;;;;;-0.95;100.00;96933.88;4997019;28;20042;-48
2022/01/22 08:06:59;;;;;;;21.20;10.90;;;;;;;-0.98;100.00;96920.25;5009618;28;20049;-49
2022/01/22 08:09:50;;;;;;;19.35;11.13;;;;;;;-0.77;100.00;96935.59;4994730;28;20045;-46
2022/01/22 08:12:18;;;;;;;21.13;11.77;;;;;;;-0.73;100.00;96933.25;4997846;28;20514;-48
2022/01/22 08:14:46;;;;;;;19.30;10.75;;;;;;;-0.84;100.00;96929.59;5005866;28;20465;-47
2022/01/22 08:17:16;;;;;;;23.23;11.20;;;;;;;-0.72;100.00;96925.03;5010804;28;20073;-48
2022/01/22 08:19:43;;;;;;;20.52;11.32;;;;;;;-0.86;100.00;96934.34;5000380;28;20439;-45
2022/01/22 08:22:30;;;;;;;20.17;10.73;;;;;;;-0.78;100.00;96928.66;5002620;28;20107;-47
2022/01/22 08:25:29;;;;;;;17.88;10.25;;;;;;;-0.78;100.00;96933.16;4991368;28;20427;-47
2022/01/22 08:30:39;;;;;;;19.52;11.13;;;;;;;-0.63;100.00;96935.31;5023011;28;20459;-46
2022/01/22 08:36:08;;;;;;;20.83;10.93;;;;;;;-0.65;100.00;96945.38;4938728;28;20051;-48
2022/01/22 08:38:35;;;;;;;20.33;11.82;;;;;;;-0.60;100.00;96940.97;5010237;28;20053;-45
2022/01/22 08:41:03;;;;;;;20.33;10.43;;;;;;;-0.68;100.00;96949.31;4994520;28;20043;-46
2022/01/22 08:43:32;;;;;;;17.30;10.38;;;;;;;-0.64;100.00;96947.81;5010681;28;20069;-48
2022/01/22 08:46:00;;;;;;;18.55;10.48;;;;;;;-0.72;100.00;96959.59;4993279;28;20434;-48
2022/01/22 08:48:27;;;;;;;18.45;10.82;;;;;;;-0.57;100.00;96945.81;5014134;28;20034;-45
2022/01/22 08:50:57;;;;;;;18.55;11.60;;;;;;;-0.48;100.00;96960.34;5012071;28;20038;-49
2022/01/22 08:53:44;;;;;;;18.00;10.32;;;;;;;-0.55;100.00;96950.91;5011450;28;20402;-45
2022/01/22 08:56:12;;;;;;;19.38;11.38;;;;;;;-0.67;100.00;96952.78;5024662;28;20141;-47
2022/01/22 08:58:43;;;;;;;23.27;12.90;;;;;;;-0.68;100.00;96956.47;5016637;28;20046;-45
2022/01/22 09:01:44;;;;;;;17.40;10.95;;;;;;;-0.61;100.00;96965.13;5006828;28;20075;-48
2022/01/22 09:04:28;;;;;;;21.58;10.55;;;;;;;-0.61;100.00;96959.81;5012233;28;20461;-48
2022/01/22 09:07:33;;;;;;;19.98;11.55;;;;;;;-0.68;100.00;96969.75;4953876;28;20062;-47
2022/01/22 09:10:19;;;;;;;20.20;11.10;;;;;;;-0.54;100.00;96965.81;4962252;28;20050;-48
2022/01/22 09:13:27;;;;;;;17.83;11.30;;;;;;;-0.63;100.00;96970.69;4994824;28;20185;-48
2022/01/22 09:16:05;;;;;;;21.63;11.68;;;;;;;-0.59;100.00;96984.28;5009536;28;20103;-46
2022/01/22 09:18:32;;;;;;;21.60;12.30;;;;;;;-0.70;100.00;96985.94;5018032;28;20404;-49
2022/01/22 09:21:02;;;;;;;21.55;12.55;;;;;;;-0.59;100.00;96987.75;5010580;28;20038;-45
2022/01/22 09:23:33;;;;;;;23.60;12.18;;;;;;;-0.69;100.00;96994.72;4991903;28;20061;-44
2022/01/22 09:26:06;;;;;;;23.37;12.03;;;;;;;-0.77;100.00;96998.56;5008885;28;20053;-46
2022/01/22 09:28:35;;;;;;;22.38;12.32;;;;;;;-0.60;100.00;96998.63;5010862;28;20466;-44
2022/01/22 09:31:02;;;;;;;20.08;12.30;;;;;;;-0.45;100.00;96996.31;5010671;28;20045;-48
2022/01/22 09:33:30;;;;;;;22.52;12.35;;;;;;;-0.60;100.00;97009.28;5007408;28;20039;-48
2022/01/22 09:36:12;;;;;;;19.38;11.32;;;;;;;-0.43;100.00;97004.03;4992889;28;20408;-48
2022/01/22 09:38:55;;;;;;;24.15;12.75;;;;;;;-0.36;100.00;97005.50;4992643;28;20487;-48
2022/01/22 09:41:41;;;;;;;21.75;11.88;;;;;;;-0.36;100.00;97010.00;4991332;28;20072;-43
2022/01/22 09:44:43;;;;;;;23.17;12.80;;;;;;;-0.48;100.00;97002.88;4991604;28;20050;-44
2022/01/22 09:47:47;;;;;;;21.65;12.93;;;;;;;-0.49;100.00;97017.22;4970632;28;20497;-48
2022/01/22 09:50:28;;;;;;;21.85;12.65;;;;;;;-0.24;100.00;97016.91;4989511;28;20046;-44
2022/01/22 09:53:09;;;;;;;20.73;13.10;;;;;;;-0.30;100.00;97022.38;4991521;28;20085;-43
2022/01/22 09:55:57;;;;;;;20.42;12.10;;;;;;;-0.48;100.00;97028.66;4991018;28;20057;-44
2022/01/22 09:58:45;;;;;;;24.58;12.38;;;;;;;-0.62;100.00;97027.28;4970854;28;20105;-43
2022/01/22 10:01:24;;;;;;;19.40;12.15;;;;;;;-0.51;100.00;97029.94;4991279;28;20034;-45
2022/01/22 10:03:56;;;;;;;20.90;11.60;;;;;;;-0.31;100.00;97034.06;4991138;28;20046;-43
2022/01/22 10:06:34;;;;;;;22.55;11.43;;;;;;;-0.26;100.00;97039.47;4990816;28;20056;-43
2022/01/22 10:09:33;;;;;;;20.75;10.80;;;;;;;-0.48;100.00;97034.00;4970448;28;20440;-46
2022/01/22 10:12:21;;;;;;;22.23;11.88;;;;;;;-0.51;100.00;97035.25;4992714;28;20050;-47
2022/01/22 10:15:17;;;;;;;19.38;11.52;;;;;;;-0.37;100.00;97035.00;4990879;28;20465;-45
2022/01/22 10:17:51;;;;;;;20.33;11.85;;;;;;;-0.36;100.00;97037.41;4992983;28;20634;-45
2022/01/22 10:20:24;;;;;;;21.05;11.35;;;;;;;-0.26;100.00;97037.63;4996675;28;20049;-44
2022/01/22 10:22:56;;;;;;;18.90;11.70;;;;;;;-0.28;99.97;97029.06;4996008;28;20078;-43
2022/01/22 10:25:29;;;;;;;21.13;10.57;;;;;;;-0.42;100.00;97034.88;4995507;28;20077;-46
2022/01/22 10:28:04;;;;;;;23.13;12.18;;;;;;;-0.19;100.00;97034.84;4995629;28;20066;-44
2022/01/22 10:30:41;;;;;;;23.20;12.00;;;;;;;-0.17;99.68;97039.91;4995452;28;20042;-43
2022/01/22 10:33:31;;;;;;;18.85;10.20;;;;;;;-0.27;100.00;97033.34;4994610;28;20082;-45
2022/01/22 10:36:22;;;;;;;18.95;10.70;;;;;;;-0.17;100.00;97037.25;4994056;28;20070;-44
2022/01/22 10:39:27;;;;;;;22.50;11.45;;;;;;;-0.39;100.00;97026.44;4923230;29;20449;-43
2022/01/22 10:41:54;;;;;;;16.67;10.05;;;;;;;-0.28;100.00;97022.94;4915999;29;20273;-43
2022/01/22 10:44:37;;;;;;;20.38;11.30;;;;;;;-0.62;100.00;97021.97;4953394;28;20046;-43
2022/01/22 10:47:04;;;;;;;17.67;10.55;;;;;;;-0.48;100.00;97018.03;4995076;28;20129;-43
2022/01/22 10:49:31;;;;;;;18.83;10.27;;;;;;;-0.50;100.00;97028.88;5011408;28;20148;-45
2022/01/22 10:52:03;;;;;;;18.25;11.57;;;;;;;-0.49;100.00;97024.38;5013067;28;20359;-44
2022/01/22 10:54:32;;;;;;;20.58;11.27;;;;;;;-0.51;100.00;97026.47;4995047;28;20177;-43
2022/01/22 10:57:12;;;;;;;20.85;12.10;;;;;;;-0.59;100.00;97037.47;4994797;28;20081;-45
2022/01/22 11:00:18;;;;;;;18.08;10.77;;;;;;;-0.47;100.00;97043.56;5030361;22;20050;-45
2022/01/22 11:02:48;;;;;;;19.63;11.05;;;;;;;-0.50;100.00;97030.75;5032287;28;20116;-47
2022/01/22 11:05:34;;;;;;;23.30;10.77;;;;;;;-0.46;100.00;97031.88;5033592;28;20465;-46
2022/01/22 11:08:08;;;;;;;19.20;9.45;;;;;;;-0.65;100.00;97027.75;5033258;28;20437;-46
2022/01/22 11:10:35;;;;;;;18.05;10.88;;;;;;;-0.33;100.00;97031.63;5028010;28;20125;-46
2022/01/22 11:13:02;;;;;;;17.13;9.77;;;;;;;-0.37;100.00;97038.44;5013554;28;20053;-49
2022/01/22 11:15:29;;;;;;;18.25;10.65;;;;;;;-0.35;100.00;97039.03;5013710;28;20399;-47
2022/01/22 11:17:56;;;;;;;19.05;10.90;;;;;;;-0.33;100.00;97036.94;5013465;28;20050;-50
2022/01/22 11:20:25;;;;;;;18.90;11.38;;;;;;;-0.19;100.00;97042.81;5012813;28;20124;-46
2022/01/22 11:22:53;;;;;;;19.83;10.43;;;;;;;-0.26;100.00;97039.47;5013530;28;20069;-46
2022/01/22 11:25:21;;;;;;;19.33;9.60;;;;;;;-0.61;100.00;97044.88;5013522;28;20038;-48
2022/01/22 11:27:49;;;;;;;17.73;9.90;;;;;;;-0.61;100.00;97040.38;5013096;28;20045;-46
2022/01/22 11:30:17;;;;;;;19.35;10.05;;;;;;;-0.55;100.00;97051.91;5012602;28;20124;-48
2022/01/22 11:32:57;;;;;;;17.38;9.68;;;;;;;-0.31;100.00;97050.00;5013120;28;20124;-46
2022/01/22 11:36:09;;;;;;;17.15;9.52;;;;;;;-0.21;100.00;97054.72;5013464;28;20129;-46
2022/01/22 11:38:39;;;;;;;19.58;10.40;;;;;;;-0.17;100.00;97046.03;5012826;28;20076;-47
2022/01/22 11:41:09;;;;;;;18.30;10.07;;;;;;;-0.14;100.00;97050.06;5012773;28;20038;-48
2022/01/22 11:44:11;;;;;;;18.67;10.70;;;;;;;-0.29;100.00;97046.06;5013413;28;20046;-49
2022/01/22 11:46:42;;;;;;;;;;;;;;;-0.29;100.00;97042.63;5013528;28;20057;-50
2022/01/22 11:49:15;;;;;;;17.55;9.20;;;;;;;-0.29;100.00;97040.75;5012118;28;19976;-51
2022/01/22 11:51:44;;;;;;;19.23;10.02;;;;;;;-0.30;100.00;97040.97;5013435;28;20049;-52
2022/01/22 11:54:20;;;;;;;16.63;10.38;;;;;;;-0.12;99.86;97040.81;5012018;28;20041;-50
2022/01/22 11:56:53;;;;;;;17.20;9.60;;;;;;;-0.04;99.90;97037.78;5012843;28;20054;-50
2022/01/22 11:59:21;;;;;;;17.35;10.07;;;;;;;0.04;99.12;97046.44;5012329;28;20570;-53
2022/01/22 12:01:51;;;;;;;17.33;9.48;;;;;;;0.17;99.10;97041.63;5012734;28;20483;-50
2022/01/22 12:04:25;;;;;;;20.48;10.38;;;;;;;0.14;98.52;97046.63;5013075;28;20415;-52
2022/01/22 12:07:04;;;;;;;17.50;9.68;;;;;;;-0.01;98.91;97047.94;5011555;28;20064;-49
2022/01/22 12:09:40;;;;;;;19.38;9.65;;;;;;;-0.16;100.00;97047.66;5010552;28;20133;-50
2022/01/22 12:15:41;;;;;;;17.85;10.70;;;;;;;-0.01;99.52;97041.81;5012531;28;20128;-52
2022/01/22 12:18:15;;;;;;;15.43;9.77;;;;;;;-0.05;99.11;97038.03;5011959;28;20188;-53
2022/01/22 12:23:17;;;;;;;20.08;9.88;;;;;;;0.11;99.05;97036.44;5012199;28;20042;-49
2022/01/22 12:25:44;;;;;;;19.27;10.60;;;;;;;0.21;98.88;97033.97;5012598;28;20110;-48
2022/01/22 12:28:13;;;;;;;20.58;10.52;;;;;;;0.07;98.49;97030.81;5012082;28;20050;-52
2022/01/22 12:30:50;;;;;;;19.23;10.25;;;;;;;-0.06;99.93;97042.53;5011679;28;20364;-50
2022/01/22 12:33:29;;;;;;;19.15;9.68;;;;;;;0.05;99.68;97038.22;5012260;28;20132;-52
2022/01/22 12:35:58;;;;;;;17.98;11.02;;;;;;;0.24;98.65;97041.47;5012408;28;20046;-52
2022/01/22 12:44:26;;;;;;;18.67;10.70;;;;;;;0.36;97.61;97034.25;5012048;28;20120;-53
2022/01/22 12:46:57;;;;;;;18.75;9.80;;;;;;;0.22;97.58;97038.25;5012041;28;20042;-54
2022/01/22 12:49:28;;;;;;;17.25;9.98;;;;;;;0.26;98.13;97038.56;5011086;28;20049;-54
2022/01/22 12:52:01;;;;;;;16.40;10.18;;;;;;;0.21;98.17;97023.31;5011670;28;20070;-50
2022/01/22 12:54:37;;;;;;;18.60;10.55;;;;;;;0.23;98.15;97016.72;5012167;28;20048;-51
2022/01/22 12:57:19;;;;;;;21.20;10.07;;;;;;;0.10;98.56;97029.50;5011655;28;20158;-48
2022/01/22 13:00:08;;;;;;;18.15;9.57;;;;;;;-0.14;99.85;97036.78;5011262;28;20486;-51
2022/01/22 13:02:45;;;;;;;17.05;9.27;;;;;;;-0.05;100.00;97030.84;5011830;28;20042;-48
2022/01/22 13:05:15;;;;;;;18.73;10.27;;;;;;;0.10;99.71;97029.50;5026628;28;20065;-52
2022/01/22 13:08:26;;;;;;;18.35;10.77;;;;;;;-0.03;100.00;97026.09;5011413;28;20077;-52
2022/01/22 13:11:08;;;;;;;19.50;10.23;;;;;;;0.00;99.81;97019.50;5020549;28;20065;-51
2022/01/22 13:13:40;;;;;;;19.80;10.70;;;;;;;0.03;100.00;97020.84;5011774;28;20049;-49
2022/01/22 13:16:09;;;;;;;19.55;9.95;;;;;;;0.26;99.26;97030.59;5010677;28;20479;-52
2022/01/22 13:18:39;;;;;;;18.92;10.30;;;;;;;-0.08;100.00;97033.16;5010963;28;20056;-49
2022/01/22 13:21:08;;;;;;;17.27;9.95;;;;;;;-0.15;100.00;97027.19;5011149;28;20046;-50
2022/01/22 13:23:36;;;;;;;16.77;10.07;;;;;;;0.15;99.52;97040.25;5011238;28;20602;-50
2022/01/22 13:26:03;;;;;;;18.58;10.65;;;;;;;0.23;98.50;97039.88;5011229;28;20054;-52
2022/01/22 13:28:33;;;;;;;18.83;10.27;;;;;;;0.23;98.72;97040.69;5011285;28;20045;-48
2022/01/22 13:31:12;;;;;;;21.23;10.98;;;;;;;0.19;98.82;97050.16;5011074;28;20447;-49
2022/01/22 13:33:51;;;;;;;17.30;10.20;;;;;;;0.11;98.76;97047.91;5010202;28;20046;-53
2022/01/22 13:36:47;;;;;;;17.52;10.50;;;;;;;0.08;98.86;97039.59;5011610;28;20047;-50
2022/01/22 13:49:59;;;;;;;17.90;9.25;;;;;;;0.04;99.39;97046.44;5010871;28;20042;-48
2022/01/22 13:52:28;;;;;;;25.25;12.77;;;;;;;0.03;98.92;97045.59;5011040;28;20116;-51
2022/01/22 13:54:58;;;;;;;20.25;10.77;;;;;;;0.15;98.96;97042.91;5014938;28;20102;-46